Time;durP1;ratioP1;P1;durP2;ratioP2;P2;SDS_P1;SDS_P2;PMS_P1;PMS_P2;Temp;Humidity;BMP_temperature;BMP_pressure;BME280_temperature;BME280_humidity;BME280_pressure;Samples;Min_cycle;Max_cycle;Signal;HPM_P1;HPM_P2
2024/01/29 00:00:03;;;;;;;11.97;9.50;;;3.00;99.90;;;;;;4976239;28;20177;-69
2024/01/29 00:02:30;;;;;;;9.67;8.73;;;3.00;99.90;;;;;;4976552;28;20773;-69
2024/01/29 00:04:56;;;;;;;10.97;9.87;;;3.10;99.90;;;;;;4976513;28;20420;-70
2024/01/29 00:07:21;;;;;;;9.43;8.03;;;2.90;99.90;;;;;;4965329;28;20422;-70
2024/01/29 00:09:47;;;;;;;9.77;8.70;;;3.00;99.90;;;;;;4970880;28;20189;-70
2024/01/29 00:12:12;;;;;;;11.60;10.40;;;3.00;99.90;;;;;;4976248;28;20557;-69
2024/01/29 00:14:38;;;;;;;10.43;9.43;;;2.90;99.90;;;;;;4976478;28;20264;-69
2024/01/29 00:17:04;;;;;;;10.83;9.57;;;3.00;99.90;;;;;;4967996;28;20549;-69
2024/01/29 00:19:29;;;;;;;11.47;9.70;;;2.90;99.90;;;;;;4957076;29;20228;-69
2024/01/29 00:21:55;;;;;;;9.93;8.93;;;2.80;99.90;;;;;;4956622;28;20253;-69
2024/01/29 00:24:20;;;;;;;11.67;9.43;;;2.80;99.90;;;;;;4956616;28;20185;-69
2024/01/29 00:26:46;;;;;;;11.63;10.10;;;2.80;99.90;;;;;;4961054;28;20207;-69
2024/01/29 00:29:11;;;;;;;11.70;10.10;;;2.80;99.90;;;;;;4976033;28;20221;-69
2024/01/29 00:31:37;;;;;;;14.37;10.70;;;2.80;99.90;;;;;;4975706;28;20291;-69
2024/01/29 00:34:02;;;;;;;10.63;9.63;;;2.70;99.90;;;;;;4975907;28;20176;-70
2024/01/29 00:36:28;;;;;;;10.43;9.43;;;2.80;99.90;;;;;;4972381;28;20252;-69
2024/01/29 00:38:53;;;;;;;13.90;10.20;;;2.80;99.90;;;;;;4956352;29;20177;-70
2024/01/29 00:41:19;;;;;;;10.93;9.93;;;2.90;99.90;;;;;;4956431;28;20201;-70
2024/01/29 00:43:45;;;;;;;10.73;9.70;;;2.90;99.90;;;;;;4956412;28;20697;-69
2024/01/29 00:46:10;;;;;;;10.63;9.57;;;2.90;99.90;;;;;;4957130;28;20170;-69
2024/01/29 00:48:36;;;;;;;10.77;9.67;;;2.90;99.90;;;;;;4974986;28;20180;-68
2024/01/29 00:51:02;;;;;;;11.83;9.53;;;2.90;99.90;;;;;;4966332;28;20684;-69
2024/01/29 00:53:28;;;;;;;15.20;11.00;;;2.90;99.90;;;;;;4956573;28;20548;-69
2024/01/29 00:55:53;;;;;;;10.43;9.37;;;2.80;99.90;;;;;;4956439;28;20406;-69
2024/01/29 00:58:20;;;;;;;20.33;10.70;;;2.80;99.90;;;;;;4973988;28;20272;-69
2024/01/29 01:00:47;;;;;;;10.37;9.33;;;2.80;99.90;;;;;;4973933;28;20201;-69
2024/01/29 01:03:13;;;;;;;10.57;9.00;;;2.90;99.90;;;;;;4974052;28;20428;-70
2024/01/29 01:05:39;;;;;;;8.40;7.60;;;2.90;99.90;;;;;;4975310;28;20846;-69
2024/01/29 01:08:05;;;;;;;10.60;9.53;;;2.90;99.90;;;;;;4959591;28;20551;-70
2024/01/29 01:10:30;;;;;;;8.87;8.03;;;2.90;99.90;;;;;;4955829;28;20464;-70
2024/01/29 01:12:56;;;;;;;15.63;9.30;;;2.90;99.90;;;;;;4956115;29;20241;-70
2024/01/29 01:15:21;;;;;;;10.47;9.37;;;2.90;99.90;;;;;;4956490;29;20578;-69
2024/01/29 01:17:47;;;;;;;10.40;9.13;;;3.00;99.90;;;;;;4969054;28;20184;-69
2024/01/29 01:20:13;;;;;;;8.70;7.77;;;3.00;99.90;;;;;;4973614;28;20213;-70
2024/01/29 01:22:38;;;;;;;11.73;9.70;;;2.90;99.90;;;;;;4975158;28;20244;-70
2024/01/29 01:25:05;;;;;;;9.57;8.67;;;2.90;99.90;;;;;;4974866;28;20169;-70
2024/01/29 01:27:31;;;;;;;9.17;8.27;;;2.90;99.90;;;;;;4962710;28;20181;-69
2024/01/29 01:29:56;;;;;;;9.43;8.40;;;2.90;99.90;;;;;;4954150;29;20469;-70
2024/01/29 01:32:22;;;;;;;9.23;8.33;;;2.90;99.90;;;;;;4955547;28;20276;-70
2024/01/29 01:34:47;;;;;;;9.03;8.13;;;2.80;99.90;;;;;;4955586;28;20266;-69
2024/01/29 01:37:13;;;;;;;9.80;8.60;;;2.90;99.90;;;;;;4962664;28;20174;-70
2024/01/29 01:39:38;;;;;;;9.53;8.63;;;2.90;99.90;;;;;;4974599;28;20272;-69
2024/01/29 01:42:04;;;;;;;9.47;8.67;;;3.00;99.90;;;;;;4973549;28;20291;-69
2024/01/29 01:44:31;;;;;;;9.37;8.30;;;3.00;99.90;;;;;;4974862;28;20181;-69
2024/01/29 01:46:56;;;;;;;9.80;8.77;;;3.00;99.90;;;;;;4968632;28;20174;-69
2024/01/29 01:49:22;;;;;;;10.47;8.30;;;3.00;99.90;;;;;;4956024;28;20921;-70
2024/01/29 01:51:49;;;;;;;10.10;8.83;;;3.00;99.90;;;;;;4955298;28;20241;-68
2024/01/29 01:54:16;;;;;;;9.63;7.67;;;2.90;99.90;;;;;;4954349;28;20421;-69
2024/01/29 01:56:42;;;;;;;11.03;9.57;;;2.90;99.90;;;;;;4959044;28;20444;-69
2024/01/29 01:59:10;;;;;;;9.07;8.17;;;2.90;99.90;;;;;;4973831;28;20878;-69
2024/01/29 02:01:36;;;;;;;9.27;8.27;;;2.90;99.90;;;;;;4954597;28;20442;-69
2024/01/29 02:04:01;;;;;;;10.73;8.73;;;2.90;99.90;;;;;;4954942;29;20432;-69
2024/01/29 02:06:28;;;;;;;8.07;7.27;;;2.90;99.90;;;;;;4957335;28;20413;-69
2024/01/29 02:08:54;;;;;;;8.03;7.07;;;2.90;99.90;;;;;;4974328;28;20212;-69
2024/01/29 02:11:20;;;;;;;8.27;7.47;;;3.10;99.90;;;;;;4974468;28;20429;-69
2024/01/29 02:13:45;;;;;;;9.33;7.80;;;3.10;99.90;;;;;;4974202;28;20819;-69
2024/01/29 02:16:11;;;;;;;8.73;7.37;;;3.10;99.90;;;;;;4974496;28;20169;-70
2024/01/29 02:18:37;;;;;;;11.10;7.53;;;3.10;99.90;;;;;;4955016;28;20661;-69
2024/01/29 02:21:08;;;;;;;8.10;6.83;;;3.00;99.90;;;;;;4954869;28;20204;-70
2024/01/29 02:23:33;;;;;;;7.80;6.93;;;3.00;99.90;;;;;;4953841;29;20273;-69
2024/01/29 02:25:59;;;;;;;10.50;7.90;;;3.00;99.90;;;;;;4954768;29;20445;-69
2024/01/29 02:28:26;;;;;;;8.30;7.50;;;2.90;99.90;;;;;;4971911;28;20178;-70
2024/01/29 02:30:52;;;;;;;6.97;6.37;;;3.00;99.90;;;;;;4974121;28;20664;-70
2024/01/29 02:33:18;;;;;;;8.80;7.00;;;3.00;99.90;;;;;;4972819;28;20400;-70
2024/01/29 02:35:48;;;;;;;8.60;7.27;;;3.00;99.90;;;;;;4974200;28;20166;-70
2024/01/29 02:38:13;;;;;;;7.57;6.80;;;3.10;99.90;;;;;;4958304;28;20174;-70
2024/01/29 02:40:39;;;;;;;7.67;6.77;;;3.20;99.90;;;;;;4954879;28;20493;-70
2024/01/29 02:43:04;;;;;;;6.57;5.97;;;3.20;99.90;;;;;;4954590;28;20191;-70
2024/01/29 02:45:30;;;;;;;6.77;6.03;;;3.20;99.90;;;;;;4957084;28;20189;-69
2024/01/29 02:47:56;;;;;;;6.53;5.87;;;3.20;99.90;;;;;;4964577;28;20192;-70
2024/01/29 02:50:22;;;;;;;7.07;6.00;;;3.10;99.90;;;;;;4953051;28;20288;-69
2024/01/29 02:52:48;;;;;;;6.50;5.90;;;3.20;99.90;;;;;;4958192;28;20153;-70
2024/01/29 02:55:14;;;;;;;6.67;6.07;;;3.10;99.90;;;;;;4958616;28;20413;-70
2024/01/29 02:57:40;;;;;;;6.70;6.00;;;3.00;99.90;;;;;;4969080;28;20428;-70
2024/01/29 03:00:06;;;;;;;7.07;6.13;;;3.10;99.90;;;;;;4977578;28;20173;-69
2024/01/29 03:02:31;;;;;;;7.10;6.50;;;3.00;99.90;;;;;;4977777;28;20176;-70
2024/01/29 03:04:57;;;;;;;6.90;6.03;;;3.00;99.90;;;;;;4977367;28;20413;-69
2024/01/29 03:07:22;;;;;;;7.03;5.33;;;3.00;99.90;;;;;;4968840;28;20260;-69
2024/01/29 03:09:48;;;;;;;6.70;6.10;;;3.00;99.90;;;;;;4958101;29;20197;-70
2024/01/29 03:12:13;;;;;;;6.97;5.47;;;3.00;99.90;;;;;;4957983;28;20681;-69
2024/01/29 03:14:39;;;;;;;6.17;5.57;;;3.00;99.90;;;;;;4958516;29;20236;-70
2024/01/29 03:17:05;;;;;;;6.33;4.97;;;3.00;99.90;;;;;;4963981;28;20169;-67
2024/01/29 03:19:30;;;;;;;5.50;5.00;;;3.10;99.90;;;;;;4975956;28;20683;-70
2024/01/29 03:21:56;;;;;;;5.40;4.87;;;3.10;99.90;;;;;;4977035;28;20185;-69
2024/01/29 03:24:21;;;;;;;5.30;4.80;;;3.00;99.90;;;;;;4977136;28;20540;-70
2024/01/29 03:26:47;;;;;;;4.53;4.13;;;3.00;99.90;;;;;;4973717;28;20173;-70
2024/01/29 03:29:12;;;;;;;4.70;4.20;;;3.10;99.90;;;;;;4958060;29;20533;-70
2024/01/29 03:31:38;;;;;;;4.73;4.33;;;3.10;99.90;;;;;;4957857;28;20597;-69
2024/01/29 03:34:03;;;;;;;6.47;4.53;;;3.10;99.90;;;;;;4957681;29;20645;-69
2024/01/29 03:36:29;;;;;;;4.73;4.17;;;3.00;99.90;;;;;;4958522;28;20174;-69
2024/01/29 03:38:54;;;;;;;4.93;4.40;;;3.00;99.90;;;;;;4976878;28;20248;-69
2024/01/29 03:41:20;;;;;;;5.43;4.80;;;3.00;99.90;;;;;;4976811;28;20676;-69
2024/01/29 03:43:45;;;;;;;3.87;3.57;;;3.00;99.90;;;;;;4976706;28;20292;-69
2024/01/29 03:46:11;;;;;;;3.97;3.53;;;2.90;99.90;;;;;;4976959;28;20197;-68
2024/01/29 03:48:36;;;;;;;4.03;3.60;;;2.90;99.90;;;;;;4959056;28;20174;-68
2024/01/29 03:51:02;;;;;;;3.67;3.23;;;2.90;99.90;;;;;;4981668;23;20789;-69
2024/01/29 03:53:28;;;;;;;4.80;4.40;;;2.80;99.90;;;;;;4955007;29;20212;-72
2024/01/29 03:55:55;;;;;;;7.53;4.90;;;2.90;99.90;;;;;;4971881;28;20197;-72
2024/01/29 03:58:20;;;;;;;4.40;4.00;;;2.70;99.90;;;;;;4957140;28;20188;-72
2024/01/29 04:00:46;;;;;;;4.30;3.90;;;2.80;99.90;;;;;;4971837;28;20406;-71
2024/01/29 04:03:12;;;;;;;3.93;3.47;;;2.80;99.90;;;;;;4956492;28;20599;-71
2024/01/29 04:05:37;;;;;;;4.47;4.03;;;2.80;99.90;;;;;;4956890;28;20457;-71
2024/01/29 04:08:03;;;;;;;4.40;3.77;;;2.70;99.90;;;;;;4956715;28;20178;-71
2024/01/29 04:10:29;;;;;;;3.43;3.13;;;2.70;99.90;;;;;;4956677;29;20202;-71
2024/01/29 04:12:54;;;;;;;5.17;4.77;;;2.60;99.90;;;;;;4956806;28;20434;-72
2024/01/29 04:15:20;;;;;;;4.60;3.90;;;2.60;99.90;;;;;;4955571;29;20170;-71
2024/01/29 04:17:46;;;;;;;4.30;3.70;;;2.50;99.90;;;;;;4956675;28;20182;-71
2024/01/29 04:20:11;;;;;;;4.50;3.73;;;2.50;99.90;;;;;;4956514;28;20196;-71
2024/01/29 04:22:37;;;;;;;3.90;3.60;;;2.50;99.90;;;;;;4956479;28;20198;-71
2024/01/29 04:25:04;;;;;;;5.10;3.83;;;2.60;99.90;;;;;;4956610;28;20170;-71
2024/01/29 04:27:30;;;;;;;4.60;4.20;;;2.60;99.90;;;;;;4956403;28;20189;-72
2024/01/29 04:29:56;;;;;;;4.77;4.10;;;2.80;99.90;;;;;;4956597;28;20952;-71
2024/01/29 04:32:22;;;;;;;4.50;4.10;;;2.90;99.90;;;;;;4955097;28;20430;-72
2024/01/29 04:34:47;;;;;;;4.10;3.23;;;3.00;99.90;;;;;;4954758;28;20162;-72
2024/01/29 04:37:14;;;;;;;4.10;3.60;;;3.10;99.90;;;;;;4956197;28;20253;-71
2024/01/29 04:39:39;;;;;;;3.73;3.43;;;3.20;99.90;;;;;;4956203;28;20304;-72
2024/01/29 04:42:06;;;;;;;4.33;3.93;;;3.20;99.90;;;;;;4956590;28;20459;-71
2024/01/29 04:44:32;;;;;;;4.57;4.10;;;3.20;99.90;;;;;;4956062;28;20551;-70
2024/01/29 04:47:01;;;;;;;4.30;3.90;;;3.10;99.90;;;;;;4955410;28;20424;-72
2024/01/29 04:49:26;;;;;;;5.33;3.97;;;3.10;99.90;;;;;;4955852;29;20198;-70
2024/01/29 04:51:52;;;;;;;4.87;4.37;;;3.10;99.90;;;;;;4956231;28;20459;-71
2024/01/29 04:54:18;;;;;;;5.60;3.90;;;3.00;99.90;;;;;;4955926;29;20225;-71
2024/01/29 04:56:43;;;;;;;4.97;4.50;;;2.90;99.90;;;;;;4955774;28;20185;-71
2024/01/29 04:59:09;;;;;;;4.50;4.10;;;3.00;99.90;;;;;;4955871;28;20178;-71
2024/01/29 05:01:35;;;;;;;5.60;4.47;;;3.00;99.90;;;;;;4956091;28;20186;-71
2024/01/29 05:04:01;;;;;;;4.93;4.33;;;3.10;99.90;;;;;;4955800;28;20233;-70
2024/01/29 05:06:26;;;;;;;5.33;4.83;;;3.10;99.90;;;;;;4955922;28;20174;-71
2024/01/29 05:08:52;;;;;;;5.40;4.90;;;3.10;99.90;;;;;;4955481;28;20802;-71
2024/01/29 05:11:18;;;;;;;5.57;5.03;;;3.10;99.90;;;;;;4955766;28;20189;-71
2024/01/29 05:13:43;;;;;;;4.77;4.23;;;3.10;99.90;;;;;;4954980;28;20167;-72
2024/01/29 05:16:13;;;;;;;5.37;4.17;;;3.10;99.90;;;;;;4955486;28;20166;-72
2024/01/29 05:18:38;;;;;;;6.43;5.00;;;3.10;99.90;;;;;;4955373;29;20197;-72
2024/01/29 05:21:05;;;;;;;4.77;4.27;;;3.10;99.90;;;;;;4956227;28;20418;-71
2024/01/29 05:23:30;;;;;;;6.07;5.47;;;3.10;99.90;;;;;;4955460;28;20177;-71
2024/01/29 05:25:56;;;;;;;6.63;5.27;;;3.10;99.90;;;;;;4955390;28;20819;-71
2024/01/29 05:28:22;;;;;;;5.27;4.43;;;3.00;99.90;;;;;;4955308;28;20209;-71
2024/01/29 05:30:50;;;;;;;4.90;4.50;;;3.00;99.90;;;;;;4955496;29;20202;-72
2024/01/29 05:33:16;;;;;;;7.50;6.00;;;3.10;99.90;;;;;;4955390;28;20273;-70
2024/01/29 05:35:41;;;;;;;5.33;4.83;;;3.10;99.90;;;;;;4955246;29;21007;-71
2024/01/29 05:38:07;;;;;;;5.60;4.67;;;3.20;99.90;;;;;;4955129;29;20186;-71
2024/01/29 05:40:32;;;;;;;6.03;4.90;;;3.30;99.90;;;;;;4955563;28;20178;-71
2024/01/29 05:42:58;;;;;;;6.90;5.47;;;3.30;99.90;;;;;;4953827;28;20198;-71
2024/01/29 05:45:23;;;;;;;4.83;4.33;;;3.40;99.90;;;;;;4954952;28;20230;-71
2024/01/29 05:47:50;;;;;;;6.00;5.40;;;3.30;99.90;;;;;;4953857;29;20178;-71
2024/01/29 05:50:15;;;;;;;5.07;4.60;;;3.30;99.90;;;;;;4955294;28;20209;-72
2024/01/29 05:52:41;;;;;;;5.57;4.83;;;3.30;99.90;;;;;;4955006;28;20450;-71
2024/01/29 05:55:07;;;;;;;6.17;4.63;;;3.30;99.90;;;;;;4955334;29;20463;-71
2024/01/29 05:57:33;;;;;;;4.87;4.47;;;3.40;99.90;;;;;;4954604;29;20178;-72
2024/01/29 05:59:59;;;;;;;6.07;5.00;;;3.40;99.90;;;;;;4955039;29;20457;-72
2024/01/29 06:02:25;;;;;;;6.60;5.50;;;3.30;99.90;;;;;;4955100;28;20325;-71
2024/01/29 06:04:50;;;;;;;6.50;5.90;;;3.30;99.90;;;;;;4955247;29;20445;-71
2024/01/29 06:07:16;;;;;;;6.77;5.80;;;3.30;99.90;;;;;;4954685;29;20178;-72
2024/01/29 06:09:41;;;;;;;5.47;4.93;;;3.20;99.90;;;;;;4955311;28;20194;-71
2024/01/29 06:12:07;;;;;;;5.40;4.90;;;3.30;99.90;;;;;;4955274;28;20193;-71
2024/01/29 06:14:33;;;;;;;7.00;6.00;;;3.30;99.90;;;;;;4954899;28;20174;-71
2024/01/29 06:16:59;;;;;;;6.47;5.63;;;3.30;99.90;;;;;;4954913;28;20198;-71
2024/01/29 06:19:25;;;;;;;7.27;6.47;;;3.20;99.90;;;;;;4954642;29;20185;-71
2024/01/29 06:21:51;;;;;;;10.00;6.77;;;3.10;99.90;;;;;;4954542;28;20433;-71
2024/01/29 06:24:17;;;;;;;7.10;6.40;;;3.10;99.90;;;;;;4954438;29;20418;-72
2024/01/29 06:26:42;;;;;;;7.17;6.50;;;3.20;99.90;;;;;;4957597;28;20182;-71
2024/01/29 06:29:08;;;;;;;6.73;6.00;;;3.30;99.90;;;;;;4958634;28;20676;-72
2024/01/29 06:31:39;;;;;;;7.50;6.73;;;3.30;99.90;;;;;;4958034;28;20914;-71
2024/01/29 06:34:05;;;;;;;7.10;6.40;;;3.30;99.90;;;;;;4958581;28;20489;-71
2024/01/29 06:36:31;;;;;;;8.10;7.33;;;3.30;99.90;;;;;;4958584;28;20484;-71
2024/01/29 06:38:58;;;;;;;9.97;8.07;;;3.30;99.90;;;;;;4958352;28;20170;-72
2024/01/29 06:41:25;;;;;;;7.40;6.33;;;3.40;99.90;;;;;;4958468;28;20429;-71
2024/01/29 06:43:52;;;;;;;7.67;6.60;;;3.30;99.90;;;;;;4956895;28;20433;-72
2024/01/29 06:46:17;;;;;;;7.93;6.93;;;3.30;99.90;;;;;;4958316;28;20461;-71
2024/01/29 06:48:44;;;;;;;6.97;5.90;;;3.30;99.90;;;;;;4958000;28;20448;-71
2024/01/29 06:51:09;;;;;;;7.13;6.43;;;3.30;99.90;;;;;;4968232;28;20336;-71
2024/01/29 06:53:36;;;;;;;7.03;6.23;;;3.10;99.90;;;;;;4969490;28;20488;-71
2024/01/29 06:56:04;;;;;;;6.03;5.43;;;3.10;99.90;;;;;;4957981;29;20162;-71
2024/01/29 06:58:30;;;;;;;8.87;6.30;;;3.10;99.90;;;;;;4957988;29;20503;-71
2024/01/29 07:00:56;;;;;;;6.80;6.17;;;3.00;99.90;;;;;;4957938;29;20455;-70
2024/01/29 07:03:21;;;;;;;8.10;6.70;;;3.00;99.90;;;;;;4957865;28;20483;-70
2024/01/29 07:05:50;;;;;;;7.30;6.57;;;2.90;99.90;;;;;;4957942;29;20166;-70
2024/01/29 07:08:16;;;;;;;6.27;5.50;;;3.00;99.90;;;;;;4957938;28;20177;-71
2024/01/29 07:10:42;;;;;;;6.37;5.60;;;3.00;99.90;;;;;;4958080;28;20450;-72
2024/01/29 07:13:08;;;;;;;8.70;5.67;;;3.00;99.90;;;;;;4957765;28;20204;-71
2024/01/29 07:15:33;;;;;;;6.10;5.50;;;3.10;99.90;;;;;;4958230;28;20405;-71
2024/01/29 07:17:59;;;;;;;5.80;5.20;;;3.00;99.90;;;;;;4957667;28;20878;-71
2024/01/29 07:20:27;;;;;;;5.07;4.40;;;3.00;99.90;;;;;;4957999;29;20206;-70
2024/01/29 07:22:53;;;;;;;6.67;5.50;;;3.00;99.90;;;;;;4958039;28;20213;-71
2024/01/29 07:25:19;;;;;;;7.53;5.53;;;3.20;99.90;;;;;;4957670;29;20402;-70
2024/01/29 07:27:44;;;;;;;7.13;3.90;;;3.30;99.90;;;;;;4957850;29;20166;-71
2024/01/29 07:30:11;;;;;;;7.73;4.73;;;3.30;99.90;;;;;;4957883;28;20201;-71
2024/01/29 07:32:37;;;;;;;5.17;4.33;;;3.30;99.90;;;;;;4957449;28;20712;-71
2024/01/29 07:35:03;;;;;;;5.20;4.70;;;3.30;99.90;;;;;;4957935;28;20410;-71
2024/01/29 07:37:29;;;;;;;6.67;5.57;;;3.40;99.90;;;;;;4956813;28;20194;-71
2024/01/29 07:39:55;;;;;;;6.80;4.97;;;3.60;99.90;;;;;;4957566;28;20418;-71
2024/01/29 07:42:21;;;;;;;5.60;5.00;;;3.60;99.90;;;;;;4957127;28;20439;-71
2024/01/29 07:44:48;;;;;;;6.03;5.43;;;3.70;99.90;;;;;;4957355;29;20443;-71
2024/01/29 07:47:14;;;;;;;5.80;3.97;;;3.70;99.90;;;;;;4957310;28;20402;-71
2024/01/29 07:49:40;;;;;;;6.10;5.27;;;3.80;99.90;;;;;;4956309;28;20462;-71
2024/01/29 07:52:05;;;;;;;5.57;5.00;;;3.80;99.90;;;;;;4957238;28;20960;-71
2024/01/29 07:54:31;;;;;;;4.73;4.13;;;3.70;99.90;;;;;;4956872;28;20181;-70
2024/01/29 07:56:56;;;;;;;5.87;5.27;;;3.60;99.90;;;;;;4957144;28;20241;-71
2024/01/29 07:59:23;;;;;;;7.10;5.03;;;3.40;99.90;;;;;;4957160;28;20170;-70
2024/01/29 08:01:49;;;;;;;6.30;5.37;;;3.50;99.90;;;;;;4958640;28;20256;-70
2024/01/29 08:04:15;;;;;;;6.03;5.43;;;3.40;99.90;;;;;;4958708;28;20424;-72
2024/01/29 08:06:40;;;;;;;5.50;5.00;;;3.50;99.90;;;;;;4957580;28;20405;-71
2024/01/29 08:09:06;;;;;;;7.93;6.20;;;3.70;99.90;;;;;;4957864;28;20278;-71
2024/01/29 08:11:32;;;;;;;9.70;7.17;;;3.90;99.90;;;;;;4958266;28;20237;-72
2024/01/29 08:13:58;;;;;;;8.33;6.50;;;3.90;99.90;;;;;;4958772;29;20808;-71
2024/01/29 08:16:24;;;;;;;9.83;7.97;;;4.10;99.90;;;;;;4956923;29;20449;-70
2024/01/29 08:18:50;;;;;;;8.20;6.97;;;4.10;99.90;;;;;;4956372;28;20437;-71
2024/01/29 08:21:16;;;;;;;9.73;8.00;;;4.20;99.90;;;;;;4957644;28;20405;-71
2024/01/29 08:23:42;;;;;;;11.30;8.27;;;4.30;99.90;;;;;;4957215;28;20402;-72
2024/01/29 08:26:08;;;;;;;10.70;7.97;;;4.30;99.90;;;;;;4957422;28;20217;-71
2024/01/29 08:28:34;;;;;;;11.10;8.00;;;4.40;99.90;;;;;;4958115;28;20666;-71
2024/01/29 08:31:00;;;;;;;9.13;8.00;;;4.40;99.90;;;;;;4956394;28;20548;-71
2024/01/29 08:33:27;;;;;;;9.00;6.40;;;4.40;99.90;;;;;;4956217;29;20186;-71
2024/01/29 08:35:53;;;;;;;7.33;6.20;;;4.50;99.90;;;;;;4954890;29;20497;-72
2024/01/29 08:38:18;;;;;;;8.47;6.43;;;4.60;99.90;;;;;;4956042;29;20988;-72
2024/01/29 08:40:44;;;;;;;8.17;6.40;;;4.60;99.90;;;;;;4956076;28;20230;-71
2024/01/29 08:43:10;;;;;;;7.10;6.40;;;4.80;99.90;;;;;;4955975;28;20270;-71
2024/01/29 08:45:36;;;;;;;9.13;6.80;;;4.80;99.90;;;;;;4956773;28;20178;-71
2024/01/29 08:48:03;;;;;;;6.80;6.10;;;4.90;99.90;;;;;;4955604;28;20178;-71
2024/01/29 08:50:30;;;;;;;7.47;6.70;;;4.90;99.90;;;;;;4953862;28;20485;-71
2024/01/29 08:52:56;;;;;;;7.67;5.47;;;4.90;99.90;;;;;;4955770;28;20750;-70
2024/01/29 08:55:22;;;;;;;8.37;6.50;;;5.00;99.90;;;;;;4955543;28;20415;-71
2024/01/29 08:57:48;;;;;;;7.30;6.53;;;5.00;99.90;;;;;;4955778;29;20408;-70
2024/01/29 09:00:14;;;;;;;7.80;6.77;;;5.00;99.90;;;;;;4955767;28;20175;-71
2024/01/29 09:02:41;;;;;;;7.13;6.40;;;5.10;99.90;;;;;;4955749;28;20237;-71
2024/01/29 09:05:07;;;;;;;5.20;4.80;;;5.10;99.90;;;;;;4955815;29;20460;-71
2024/01/29 09:07:33;;;;;;;6.70;6.00;;;5.00;99.90;;;;;;4956055;28;20417;-71
2024/01/29 09:09:58;;;;;;;7.10;6.10;;;5.10;99.90;;;;;;4955533;29;20819;-71
2024/01/29 09:12:24;;;;;;;8.60;6.10;;;5.20;99.90;;;;;;4954283;28;20568;-71
2024/01/29 09:14:49;;;;;;;7.80;6.47;;;5.30;99.90;;;;;;4955795;28;20540;-71
2024/01/29 09:17:15;;;;;;;7.83;7.03;;;5.30;99.90;;;;;;4955876;28;20179;-71
2024/01/29 09:19:40;;;;;;;7.73;6.73;;;5.50;99.90;;;;;;4955688;29;20208;-71
2024/01/29 09:22:06;;;;;;;8.07;6.67;;;5.50;99.90;;;;;;4955411;28;20200;-71
2024/01/29 09:24:31;;;;;;;9.00;7.87;;;5.70;99.90;;;;;;4955419;29;20177;-71
2024/01/29 09:26:57;;;;;;;6.93;6.23;;;5.80;99.90;;;;;;4954158;29;20278;-71
2024/01/29 09:29:22;;;;;;;7.10;6.43;;;6.00;99.90;;;;;;4955467;29;20191;-71
2024/01/29 09:31:48;;;;;;;8.20;7.23;;;6.00;99.90;;;;;;4955186;28;20184;-71
2024/01/29 09:34:14;;;;;;;9.23;7.53;;;6.00;99.90;;;;;;4954208;28;20179;-72
2024/01/29 09:36:40;;;;;;;8.93;7.80;;;6.20;99.90;;;;;;4955343;28;20405;-71
2024/01/29 09:39:06;;;;;;;11.93;7.37;;;6.30;99.90;;;;;;4955070;28;20193;-72
2024/01/29 09:41:34;;;;;;;10.97;7.70;;;6.30;99.90;;;;;;4955276;28;20275;-72
2024/01/29 09:44:04;;;;;;;8.83;7.90;;;6.50;99.90;;;;;;4955181;29;20420;-71
2024/01/29 09:46:31;;;;;;;10.50;9.30;;;6.70;99.90;;;;;;4955423;28;20446;-72
2024/01/29 09:48:58;;;;;;;11.83;10.20;;;6.70;99.90;;;;;;4955128;28;20416;-71
2024/01/29 09:53:56;;;;;;;11.70;9.27;;;6.90;99.90;;;;;;5012046;28;20511;-70
2024/01/29 09:56:21;;;;;;;8.60;7.80;;;7.10;99.90;;;;;;5013374;28;20922;-70
2024/01/29 09:58:47;;;;;;;9.73;7.60;;;7.20;99.90;;;;;;5013362;28;20398;-70
2024/01/29 10:01:15;;;;;;;9.47;8.50;;;7.20;99.90;;;;;;5012963;28;20165;-69
2024/01/29 10:03:41;;;;;;;13.80;11.37;;;7.20;99.90;;;;;;5013213;28;20195;-69
2024/01/29 10:06:07;;;;;;;12.60;11.30;;;7.10;99.90;;;;;;5012468;28;20421;-69
2024/01/29 10:08:35;;;;;;;12.33;10.90;;;7.20;99.90;;;;;;5013587;28;20757;-70
2024/01/29 10:11:03;;;;;;;14.80;11.47;;;7.30;99.90;;;;;;5013634;28;20229;-70
2024/01/29 10:13:29;;;;;;;14.50;11.20;;;7.40;99.90;;;;;;5013091;28;20843;-70
2024/01/29 10:15:56;;;;;;;12.97;11.63;;;7.50;99.90;;;;;;5013288;28;20414;-69
2024/01/29 10:18:21;;;;;;;12.67;11.37;;;7.80;99.90;;;;;;5013128;28;20171;-69
2024/01/29 10:20:47;;;;;;;13.47;12.10;;;7.90;99.90;;;;;;5013307;28;20418;-69
2024/01/29 10:23:12;;;;;;;12.03;10.90;;;7.90;99.90;;;;;;5013002;28;20222;-69
2024/01/29 10:25:39;;;;;;;13.00;11.67;;;8.00;99.90;;;;;;5013031;28;20184;-68
2024/01/29 10:28:14;;;;;;;13.90;12.40;;;8.00;99.90;;;;;;5012946;28;20677;-69
2024/01/29 10:30:40;;;;;;;11.30;10.10;;;8.10;99.90;;;;;;5012917;28;20527;-69
2024/01/29 10:33:06;;;;;;;15.10;11.17;;;8.30;99.90;;;;;;5012421;28;20463;-69
2024/01/29 10:35:32;;;;;;;12.47;11.20;;;8.30;99.90;;;;;;5012850;28;20460;-69
2024/01/29 10:38:05;;;;;;;12.87;10.90;;;8.50;99.90;;;;;;5012825;28;20461;-69
2024/01/29 10:40:32;;;;;;;11.50;10.40;;;8.50;99.90;;;;;;5012968;28;20180;-69
2024/01/29 10:42:59;;;;;;;14.77;10.30;;;8.60;99.90;;;;;;5012799;28;20495;-69
2024/01/29 10:45:25;;;;;;;11.43;10.30;;;8.70;99.90;;;;;;5011569;28;20776;-69
2024/01/29 10:47:57;;;;;;;12.47;11.13;;;8.80;99.90;;;;;;5012868;28;20451;-69
2024/01/29 10:50:23;;;;;;;12.60;11.20;;;9.00;99.90;;;;;;5013040;28;20453;-69
2024/01/29 10:52:50;;;;;;;12.43;11.03;;;9.10;99.90;;;;;;5012575;28;20540;-69
2024/01/29 10:55:16;;;;;;;12.37;11.03;;;9.20;99.90;;;;;;5012650;28;20661;-70
2024/01/29 10:57:47;;;;;;;12.30;10.67;;;9.40;99.90;;;;;;5019044;28;20410;-69
2024/01/29 11:00:18;;;;;;;14.33;11.00;;;9.60;99.90;;;;;;5032515;28;20409;-70
2024/01/29 11:02:45;;;;;;;12.67;10.73;;;9.80;99.90;;;;;;5032714;28;20901;-69
2024/01/29 11:05:13;;;;;;;12.47;11.20;;;9.80;99.90;;;;;;5032645;28;20415;-69
2024/01/29 11:07:41;;;;;;;12.03;10.13;;;9.70;99.90;;;;;;5018274;28;20409;-70
2024/01/29 11:10:22;;;;;;;12.27;10.97;;;9.90;99.90;;;;;;5012687;28;20462;-69
2024/01/29 11:12:54;;;;;;;11.83;10.63;;;10.00;99.90;;;;;;5014141;28;20434;-70
2024/01/29 11:15:20;;;;;;;11.43;10.10;;;10.70;99.90;;;;;;5016310;28;20391;-70
2024/01/29 11:17:46;;;;;;;12.37;11.17;;;12.50;99.90;;;;;;5014837;28;20417;-70
2024/01/29 11:20:14;;;;;;;11.20;10.07;;;13.70;98.10;;;;;;5016024;28;20418;-70
2024/01/29 11:22:41;;;;;;;13.13;10.20;;;15.60;94.50;;;;;;5016006;28;20924;-68
2024/01/29 11:25:08;;;;;;;11.03;9.93;;;16.90;91.50;;;;;;5016507;28;20898;-68
2024/01/29 11:27:36;;;;;;;12.20;10.90;;;17.60;86.00;;;;;;5016012;28;20411;-69
2024/01/29 11:30:19;;;;;;;11.67;9.77;;;18.50;83.80;;;;;;5015865;28;20878;-69
2024/01/29 11:32:49;;;;;;;11.53;10.43;;;19.50;76.60;;;;;;5016072;28;20426;-69
2024/01/29 11:35:19;;;;;;;13.90;12.10;;;20.00;73.10;;;;;;5015940;28;20445;-69
2024/01/29 11:37:48;;;;;;;14.80;11.00;;;20.50;72.90;;;;;;5016175;28;20418;-69
2024/01/29 11:40:38;;;;;;;13.50;11.03;;;21.20;70.60;;;;;;5016143;28;20403;-69
2024/01/29 11:43:18;;;;;;;12.17;10.67;;;21.60;63.90;;;;;;5015665;28;20462;-69
2024/01/29 11:45:52;;;;;;;14.43;10.60;;;22.20;63.40;;;;;;5016169;28;20415;-69
2024/01/29 11:48:20;;;;;;;16.57;11.43;;;22.30;61.30;;;;;;5015804;28;20411;-70
2024/01/29 11:50:51;;;;;;;12.10;10.70;;;22.20;62.40;;;;;;5015607;28;20478;-69
2024/01/29 11:53:18;;;;;;;11.13;10.13;;;22.60;61.10;;;;;;5015523;28;20871;-70
2024/01/29 11:55:46;;;;;;;11.80;10.67;;;22.70;59.10;;;;;;5015777;28;20453;-69
2024/01/29 11:58:13;;;;;;;11.73;10.60;;;22.00;59.60;;;;;;5015550;28;20410;-69
2024/01/29 12:00:39;;;;;;;11.27;10.03;;;23.00;58.80;;;;;;5015460;28;20443;-69
2024/01/29 12:03:08;;;;;;;13.17;10.50;;;23.90;57.00;;;;;;5015504;28;20434;-69
2024/01/29 12:05:34;;;;;;;13.57;10.20;;;23.10;56.40;;;;;;5015283;28;20410;-69
2024/01/29 12:07:59;;;;;;;12.93;10.07;;;24.10;56.00;;;;;;5015064;28;20411;-69
2024/01/29 12:10:25;;;;;;;14.47;10.87;;;24.00;55.00;;;;;;5015145;28;20270;-69
2024/01/29 12:12:51;;;;;;;15.83;9.93;;;24.30;54.20;;;;;;5015229;28;20200;-69
2024/01/29 12:15:16;;;;;;;11.13;10.03;;;23.80;55.50;;;;;;5015125;28;20165;-69
2024/01/29 12:17:44;;;;;;;12.70;10.23;;;23.50;54.30;;;;;;5015064;28;20187;-70
2024/01/29 12:20:11;;;;;;;11.90;10.70;;;24.30;54.50;;;;;;5014980;28;20179;-70
2024/01/29 12:22:38;;;;;;;11.93;9.60;;;24.80;53.60;;;;;;5014867;28;20445;-70
2024/01/29 12:25:13;;;;;;;11.47;9.73;;;25.50;52.80;;;;;;5015500;28;20475;-71
2024/01/29 12:27:40;;;;;;;12.23;10.60;;;25.80;52.10;;;;;;5015704;28;20407;-70
2024/01/29 12:30:11;;;;;;;16.20;10.67;;;25.90;50.60;;;;;;5015072;28;21003;-70
2024/01/29 12:32:39;;;;;;;9.80;8.80;;;25.20;50.00;;;;;;5015042;28;20433;-70
2024/01/29 12:35:22;;;;;;;13.83;9.90;;;25.90;50.90;;;;;;5014881;28;20410;-71
2024/01/29 12:37:48;;;;;;;10.87;9.77;;;26.60;49.40;;;;;;5014812;28;20408;-70
2024/01/29 12:40:15;;;;;;;12.07;9.93;;;26.80;48.20;;;;;;5014628;28;20411;-70
2024/01/29 12:42:41;;;;;;;10.77;9.30;;;27.40;48.10;;;;;;5014468;28;20188;-70
2024/01/29 12:45:14;;;;;;;15.43;9.80;;;27.20;47.90;;;;;;5014857;28;20411;-69
2024/01/29 12:47:39;;;;;;;11.00;9.47;;;27.20;46.60;;;;;;5015048;28;20513;-69